sensor_id;sensor_type;location;lat;lon;timestamp;pressure;altitude;pressure_sealevel;temperature;humidity
80986;BME280;70451;51.226;6.412;2023-08-30T00:01:49;100277.31;;;13.32;97.91
80986;BME280;70451;51.226;6.412;2023-08-30T00:04:04;100284.44;;;13.30;97.56
80986;BME280;70451;51.226;6.412;2023-08-30T00:06:20;100282.88;;;13.28;97.34
80986;BME280;70451;51.226;6.412;2023-08-30T00:08:35;100276.78;;;13.27;97.53
80986;BME280;70451;51.226;6.412;2023-08-30T00:10:50;100273.34;;;13.27;97.35
80986;BME280;70451;51.226;6.412;2023-08-30T00:13:06;100275.31;;;13.23;97.08
80986;BME280;70451;51.226;6.412;2023-08-30T00:15:21;100275.22;;;13.25;97.22
80986;BME280;70451;51.226;6.412;2023-08-30T00:17:37;100275.22;;;13.25;97.56
80986;BME280;70451;51.226;6.412;2023-08-30T00:19:52;100276.16;;;13.24;97.35
80986;BME280;70451;51.226;6.412;2023-08-30T00:22:09;100275.63;;;13.19;97.15
80986;BME280;70451;51.226;6.412;2023-08-30T00:24:24;100279.94;;;13.20;97.17
80986;BME280;70451;51.226;6.412;2023-08-30T00:26:39;100273.00;;;13.19;97.37
80986;BME280;70451;51.226;6.412;2023-08-30T00:28:55;100272.28;;;13.17;97.27
80986;BME280;70451;51.226;6.412;2023-08-30T00:31:10;100275.19;;;13.12;97.54
80986;BME280;70451;51.226;6.412;2023-08-30T00:33:25;100270.97;;;13.10;97.43
80986;BME280;70451;51.226;6.412;2023-08-30T00:35:41;100271.81;;;13.10;97.83
80986;BME280;70451;51.226;6.412;2023-08-30T00:37:56;100269.72;;;13.03;97.59
80986;BME280;70451;51.226;6.412;2023-08-30T00:40:11;100269.94;;;13.00;97.17
80986;BME280;70451;51.226;6.412;2023-08-30T00:42:27;100267.09;;;13.03;97.79
80986;BME280;70451;51.226;6.412;2023-08-30T00:44:42;100258.19;;;13.05;97.55
80986;BME280;70451;51.226;6.412;2023-08-30T00:46:58;100257.47;;;13.03;97.57
80986;BME280;70451;51.226;6.412;2023-08-30T00:49:14;100256.72;;;13.01;97.58
80986;BME280;70451;51.226;6.412;2023-08-30T00:51:30;100254.41;;;12.97;97.56
80986;BME280;70451;51.226;6.412;2023-08-30T00:53:46;100243.84;;;12.98;97.25
80986;BME280;70451;51.226;6.412;2023-08-30T00:56:01;100248.94;;;12.87;97.43
80986;BME280;70451;51.226;6.412;2023-08-30T00:58:17;100246.00;;;12.79;97.14
80986;BME280;70451;51.226;6.412;2023-08-30T01:00:32;100234.72;;;12.78;97.41
80986;BME280;70451;51.226;6.412;2023-08-30T01:02:48;100241.31;;;12.84;97.98
80986;BME280;70451;51.226;6.412;2023-08-30T01:05:03;100236.59;;;12.76;97.77
80986;BME280;70451;51.226;6.412;2023-08-30T01:07:19;100238.69;;;12.71;97.91
80986;BME280;70451;51.226;6.412;2023-08-30T01:09:34;100240.47;;;12.71;97.68
80986;BME280;70451;51.226;6.412;2023-08-30T01:14:33;100237.50;;;12.63;98.50
80986;BME280;70451;51.226;6.412;2023-08-30T01:16:50;100229.00;;;12.59;98.54
80986;BME280;70451;51.226;6.412;2023-08-30T01:19:24;100228.16;;;12.59;99.03
80986;BME280;70451;51.226;6.412;2023-08-30T01:24:23;100226.81;;;12.66;99.18
80986;BME280;70451;51.226;6.412;2023-08-30T01:27:07;100232.81;;;12.68;99.07
80986;BME280;70451;51.226;6.412;2023-08-30T01:29:23;100232.63;;;12.71;98.75
80986;BME280;70451;51.226;6.412;2023-08-30T01:31:40;100224.63;;;12.72;98.90
80986;BME280;70451;51.226;6.412;2023-08-30T01:33:56;100220.97;;;12.62;98.26
80986;BME280;70451;51.226;6.412;2023-08-30T01:36:12;100216.88;;;12.58;98.35
80986;BME280;70451;51.226;6.412;2023-08-30T01:38:29;100215.50;;;12.52;98.08
80986;BME280;70451;51.226;6.412;2023-08-30T01:40:45;100214.56;;;12.53;98.35
80986;BME280;70451;51.226;6.412;2023-08-30T01:43:01;100211.63;;;12.58;98.76
80986;BME280;70451;51.226;6.412;2023-08-30T01:45:20;100214.22;;;12.45;98.44
80986;BME280;70451;51.226;6.412;2023-08-30T01:47:37;100212.13;;;12.50;99.10
80986;BME280;70451;51.226;6.412;2023-08-30T01:49:54;100216.16;;;12.56;99.17
80986;BME280;70451;51.226;6.412;2023-08-30T01:52:10;100215.09;;;12.59;98.73
80986;BME280;70451;51.226;6.412;2023-08-30T01:54:27;100216.44;;;12.51;98.51
80986;BME280;70451;51.226;6.412;2023-08-30T01:56:43;100224.84;;;12.57;98.95
80986;BME280;70451;51.226;6.412;2023-08-30T01:58:58;100219.47;;;12.58;98.74
80986;BME280;70451;51.226;6.412;2023-08-30T02:01:13;100216.88;;;12.58;98.94
80986;BME280;70451;51.226;6.412;2023-08-30T02:03:29;100215.75;;;12.62;98.39
80986;BME280;70451;51.226;6.412;2023-08-30T02:08:12;100220.03;;;12.63;98.07
80986;BME280;70451;51.226;6.412;2023-08-30T02:10:34;100214.25;;;12.58;98.23
80986;BME280;70451;51.226;6.412;2023-08-30T02:12:53;100213.97;;;12.63;97.97
80986;BME280;70451;51.226;6.412;2023-08-30T02:15:11;100213.13;;;12.62;97.76
80986;BME280;70451;51.226;6.412;2023-08-30T02:17:29;100209.56;;;12.63;97.88
80986;BME280;70451;51.226;6.412;2023-08-30T02:19:45;100203.59;;;12.61;97.94
80986;BME280;70451;51.226;6.412;2023-08-30T02:22:00;100202.00;;;12.59;97.74
80986;BME280;70451;51.226;6.412;2023-08-30T02:24:16;100204.53;;;12.60;97.67
80986;BME280;70451;51.226;6.412;2023-08-30T02:26:31;100202.94;;;12.57;97.42
80986;BME280;70451;51.226;6.412;2023-08-30T02:28:46;100202.75;;;12.61;97.89
80986;BME280;70451;51.226;6.412;2023-08-30T02:31:02;100201.06;;;12.60;97.90
80986;BME280;70451;51.226;6.412;2023-08-30T02:33:18;100194.28;;;12.57;97.95
80986;BME280;70451;51.226;6.412;2023-08-30T02:35:33;100204.94;;;12.54;97.73
80986;BME280;70451;51.226;6.412;2023-08-30T02:37:48;100198.53;;;12.45;98.04
80986;BME280;70451;51.226;6.412;2023-08-30T02:40:04;100206.09;;;12.50;97.81
80986;BME280;70451;51.226;6.412;2023-08-30T02:42:19;100197.41;;;12.49;97.82
80986;BME280;70451;51.226;6.412;2023-08-30T02:44:35;100200.03;;;12.49;97.90
80986;BME280;70451;51.226;6.412;2023-08-30T02:46:50;100198.75;;;12.42;97.83
80986;BME280;70451;51.226;6.412;2023-08-30T02:49:05;100206.97;;;12.36;97.94
80986;BME280;70451;51.226;6.412;2023-08-30T02:51:21;100197.66;;;12.32;98.08
80986;BME280;70451;51.226;6.412;2023-08-30T02:53:36;100193.78;;;12.25;98.55
80986;BME280;70451;51.226;6.412;2023-08-30T02:55:51;100193.34;;;12.19;98.64
80986;BME280;70451;51.226;6.412;2023-08-30T02:58:10;100191.34;;;12.22;99.21
80986;BME280;70451;51.226;6.412;2023-08-30T03:00:25;100183.31;;;12.25;99.06
80986;BME280;70451;51.226;6.412;2023-08-30T03:02:41;100176.84;;;12.31;99.05
80986;BME280;70451;51.226;6.412;2023-08-30T03:04:56;100177.06;;;12.28;98.85
80986;BME280;70451;51.226;6.412;2023-08-30T03:07:11;100168.56;;;12.24;98.76
80986;BME280;70451;51.226;6.412;2023-08-30T03:09:27;100171.38;;;12.21;98.79
80986;BME280;70451;51.226;6.412;2023-08-30T03:11:42;100174.94;;;12.20;99.34
80986;BME280;70451;51.226;6.412;2023-08-30T03:13:58;100163.72;;;12.18;99.50
80986;BME280;70451;51.226;6.412;2023-08-30T03:16:14;100166.78;;;12.25;99.20
80986;BME280;70451;51.226;6.412;2023-08-30T03:18:30;100159.03;;;12.23;99.28
80986;BME280;70451;51.226;6.412;2023-08-30T03:20:45;100167.81;;;12.22;99.16
80986;BME280;70451;51.226;6.412;2023-08-30T03:23:00;100163.81;;;12.16;99.59
80986;BME280;70451;51.226;6.412;2023-08-30T03:25:16;100160.69;;;12.11;99.16
80986;BME280;70451;51.226;6.412;2023-08-30T03:27:32;100163.09;;;12.14;99.77
80986;BME280;70451;51.226;6.412;2023-08-30T03:29:48;100156.81;;;12.17;99.64
80986;BME280;70451;51.226;6.412;2023-08-30T03:32:03;100161.22;;;12.16;99.83
80986;BME280;70451;51.226;6.412;2023-08-30T03:34:19;100162.13;;;12.15;99.91
80986;BME280;70451;51.226;6.412;2023-08-30T03:36:35;100160.28;;;12.18;99.47
80986;BME280;70451;51.226;6.412;2023-08-30T03:38:50;100155.69;;;12.21;100.00
80986;BME280;70451;51.226;6.412;2023-08-30T03:41:06;100155.38;;;12.26;100.00
80986;BME280;70451;51.226;6.412;2023-08-30T03:43:21;100143.66;;;12.31;99.65
80986;BME280;70451;51.226;6.412;2023-08-30T03:45:36;100151.22;;;12.36;99.72
80986;BME280;70451;51.226;6.412;2023-08-30T03:47:52;100138.66;;;12.41;100.00
80986;BME280;70451;51.226;6.412;2023-08-30T03:50:07;100140.53;;;12.39;99.78
80986;BME280;70451;51.226;6.412;2023-08-30T03:52:24;100143.59;;;12.45;100.00
80986;BME280;70451;51.226;6.412;2023-08-30T03:54:39;100152.78;;;12.51;99.63
80986;BME280;70451;51.226;6.412;2023-08-30T03:56:54;100146.84;;;12.49;99.47
80986;BME280;70451;51.226;6.412;2023-08-30T03:59:10;100137.84;;;12.53;99.82
80986;BME280;70451;51.226;6.412;2023-08-30T04:01:26;100148.31;;;12.53;99.38
80986;BME280;70451;51.226;6.412;2023-08-30T04:03:41;100143.91;;;12.53;99.42
80986;BME280;70451;51.226;6.412;2023-08-30T04:05:57;100150.09;;;12.65;99.56
80986;BME280;70451;51.226;6.412;2023-08-30T04:08:12;100144.34;;;12.60;99.71
80986;BME280;70451;51.226;6.412;2023-08-30T04:10:28;100149.47;;;12.62;99.22
80986;BME280;70451;51.226;6.412;2023-08-30T04:12:43;100149.06;;;12.68;99.22
80986;BME280;70451;51.226;6.412;2023-08-30T04:14:58;100146.84;;;12.74;99.16
80986;BME280;70451;51.226;6.412;2023-08-30T04:17:14;100141.72;;;12.73;99.64
80986;BME280;70451;51.226;6.412;2023-08-30T04:19:29;100136.38;;;12.74;99.23
80986;BME280;70451;51.226;6.412;2023-08-30T04:21:44;100137.13;;;12.76;99.68
80986;BME280;70451;51.226;6.412;2023-08-30T04:23:59;100137.88;;;12.78;99.32
80986;BME280;70451;51.226;6.412;2023-08-30T04:26:15;100128.22;;;12.79;99.37
80986;BME280;70451;51.226;6.412;2023-08-30T04:28:30;100120.25;;;12.80;99.53
80986;BME280;70451;51.226;6.412;2023-08-30T04:30:45;100120.66;;;12.87;99.36
80986;BME280;70451;51.226;6.412;2023-08-30T04:33:01;100116.81;;;12.92;99.03
80986;BME280;70451;51.226;6.412;2023-08-30T04:35:18;100114.81;;;12.96;99.34
80986;BME280;70451;51.226;6.412;2023-08-30T04:37:33;100114.47;;;13.01;99.42
80986;BME280;70451;51.226;6.412;2023-08-30T04:39:48;100114.47;;;13.01;99.29
80986;BME280;70451;51.226;6.412;2023-08-30T04:42:04;100108.94;;;13.05;99.14
80986;BME280;70451;51.226;6.412;2023-08-30T04:44:20;100117.53;;;13.07;99.06
80986;BME280;70451;51.226;6.412;2023-08-30T04:46:39;100109.53;;;13.09;99.40
80986;BME280;70451;51.226;6.412;2023-08-30T04:48:54;100114.06;;;13.07;98.82
80986;BME280;70451;51.226;6.412;2023-08-30T04:51:10;100101.69;;;13.09;99.29
80986;BME280;70451;51.226;6.412;2023-08-30T04:53:25;100098.34;;;13.07;99.16
80986;BME280;70451;51.226;6.412;2023-08-30T04:55:40;100097.19;;;13.11;99.35
80986;BME280;70451;51.226;6.412;2023-08-30T04:57:55;100097.09;;;13.12;99.12
80986;BME280;70451;51.226;6.412;2023-08-30T05:00:12;100086.41;;;13.15;98.94
80986;BME280;70451;51.226;6.412;2023-08-30T05:02:27;100081.69;;;13.08;99.08
80986;BME280;70451;51.226;6.412;2023-08-30T05:04:42;100084.09;;;13.11;99.06
80986;BME280;70451;51.226;6.412;2023-08-30T05:06:58;100083.59;;;13.06;99.00
80986;BME280;70451;51.226;6.412;2023-08-30T05:09:13;100079.78;;;13.10;98.35
80986;BME280;70451;51.226;6.412;2023-08-30T05:11:29;100077.84;;;13.13;98.75
80986;BME280;70451;51.226;6.412;2023-08-30T05:13:45;100071.66;;;13.14;99.27
80986;BME280;70451;51.226;6.412;2023-08-30T05:16:00;100073.00;;;13.07;99.31
80986;BME280;70451;51.226;6.412;2023-08-30T05:18:15;100070.81;;;13.14;99.30
80986;BME280;70451;51.226;6.412;2023-08-30T05:20:31;100068.91;;;13.16;99.40
80986;BME280;70451;51.226;6.412;2023-08-30T05:22:46;100069.44;;;13.21;99.24
80986;BME280;70451;51.226;6.412;2023-08-30T05:25:01;100064.91;;;13.23;99.26
80986;BME280;70451;51.226;6.412;2023-08-30T05:27:17;100067.31;;;13.26;98.89
80986;BME280;70451;51.226;6.412;2023-08-30T05:29:33;100064.59;;;13.27;99.31
80986;BME280;70451;51.226;6.412;2023-08-30T05:31:48;100061.97;;;13.27;98.75
80986;BME280;70451;51.226;6.412;2023-08-30T05:34:04;100064.47;;;13.29;98.71
80986;BME280;70451;51.226;6.412;2023-08-30T05:36:19;100065.22;;;13.31;98.83
80986;BME280;70451;51.226;6.412;2023-08-30T05:38:34;100064.75;;;13.37;99.05
80986;BME280;70451;51.226;6.412;2023-08-30T05:40:50;100054.56;;;13.45;98.80
80986;BME280;70451;51.226;6.412;2023-08-30T05:43:05;100052.34;;;13.52;98.43
80986;BME280;70451;51.226;6.412;2023-08-30T05:45:21;100049.41;;;13.56;98.55
80986;BME280;70451;51.226;6.412;2023-08-30T05:47:36;100052.50;;;13.61;98.58
80986;BME280;70451;51.226;6.412;2023-08-30T05:49:51;100048.84;;;13.64;98.45
80986;BME280;70451;51.226;6.412;2023-08-30T05:52:07;100045.38;;;13.63;98.29
80986;BME280;70451;51.226;6.412;2023-08-30T05:54:22;100043.72;;;13.62;98.37
80986;BME280;70451;51.226;6.412;2023-08-30T05:56:37;100028.91;;;13.61;98.36
80986;BME280;70451;51.226;6.412;2023-08-30T05:58:53;100036.78;;;13.61;98.30
80986;BME280;70451;51.226;6.412;2023-08-30T06:01:08;100032.84;;;13.56;97.97
80986;BME280;70451;51.226;6.412;2023-08-30T06:03:23;100028.09;;;13.61;98.31
80986;BME280;70451;51.226;6.412;2023-08-30T06:05:39;100032.69;;;13.57;97.99
80986;BME280;70451;51.226;6.412;2023-08-30T06:07:54;100028.28;;;13.58;98.44
80986;BME280;70451;51.226;6.412;2023-08-30T06:10:09;100025.06;;;13.54;98.03
80986;BME280;70451;51.226;6.412;2023-08-30T06:12:25;100027.91;;;13.51;98.26
80986;BME280;70451;51.226;6.412;2023-08-30T06:14:40;100029.81;;;13.49;98.44
80986;BME280;70451;51.226;6.412;2023-08-30T06:16:55;100027.31;;;13.48;97.99
80986;BME280;70451;51.226;6.412;2023-08-30T06:19:11;100025.47;;;13.61;97.77
80986;BME280;70451;51.226;6.412;2023-08-30T06:21:26;100026.00;;;13.77;97.39
80986;BME280;70451;51.226;6.412;2023-08-30T06:23:42;100029.50;;;14.00;97.26
80986;BME280;70451;51.226;6.412;2023-08-30T06:25:57;100017.59;;;14.07;95.77
80986;BME280;70451;51.226;6.412;2023-08-30T06:28:12;100023.25;;;14.25;95.53
80986;BME280;70451;51.226;6.412;2023-08-30T06:30:28;100009.78;;;14.29;94.76
80986;BME280;70451;51.226;6.412;2023-08-30T06:32:44;100011.81;;;14.37;94.10
80986;BME280;70451;51.226;6.412;2023-08-30T06:34:59;100011.16;;;14.46;93.27
80986;BME280;70451;51.226;6.412;2023-08-30T06:37:15;100006.72;;;14.58;92.80
80986;BME280;70451;51.226;6.412;2023-08-30T06:39:34;100006.63;;;14.70;92.53
80986;BME280;70451;51.226;6.412;2023-08-30T06:41:52;100002.69;;;14.76;91.28
80986;BME280;70451;51.226;6.412;2023-08-30T06:44:07;100004.94;;;14.92;92.32
80986;BME280;70451;51.226;6.412;2023-08-30T06:46:22;100009.44;;;15.01;90.92
80986;BME280;70451;51.226;6.412;2023-08-30T06:48:38;100005.97;;;15.11;89.37
80986;BME280;70451;51.226;6.412;2023-08-30T06:50:57;100010.56;;;15.30;88.90
80986;BME280;70451;51.226;6.412;2023-08-30T06:53:12;100009.44;;;15.55;89.68
80986;BME280;70451;51.226;6.412;2023-08-30T06:55:27;100010.03;;;15.79;88.54
80986;BME280;70451;51.226;6.412;2023-08-30T06:57:48;100005.63;;;16.00;87.33
80986;BME280;70451;51.226;6.412;2023-08-30T07:00:05;99998.09;;;16.17;86.01
80986;BME280;70451;51.226;6.412;2023-08-30T07:02:23;100004.13;;;16.28;86.37
80986;BME280;70451;51.226;6.412;2023-08-30T07:04:39;99992.91;;;16.26;85.86
80986;BME280;70451;51.226;6.412;2023-08-30T07:06:55;99992.59;;;16.20;85.77
80986;BME280;70451;51.226;6.412;2023-08-30T07:09:10;99990.47;;;16.14;86.41
80986;BME280;70451;51.226;6.412;2023-08-30T07:11:26;99985.78;;;16.17;85.77
80986;BME280;70451;51.226;6.412;2023-08-30T07:13:41;99989.97;;;16.20;84.43
80986;BME280;70451;51.226;6.412;2023-08-30T07:15:57;99980.78;;;16.44;84.29
80986;BME280;70451;51.226;6.412;2023-08-30T07:18:12;99988.94;;;16.41;83.84
80986;BME280;70451;51.226;6.412;2023-08-30T07:20:27;99978.16;;;16.44;84.47
80986;BME280;70451;51.226;6.412;2023-08-30T07:22:42;99979.78;;;16.36;83.71
80986;BME280;70451;51.226;6.412;2023-08-30T07:24:58;99969.22;;;16.26;84.55
80986;BME280;70451;51.226;6.412;2023-08-30T07:27:13;99976.66;;;16.21;84.09
80986;BME280;70451;51.226;6.412;2023-08-30T07:29:29;99978.38;;;16.32;84.45
80986;BME280;70451;51.226;6.412;2023-08-30T07:31:44;99981.63;;;16.45;83.72
80986;BME280;70451;51.226;6.412;2023-08-30T07:33:59;99979.69;;;16.47;83.10
80986;BME280;70451;51.226;6.412;2023-08-30T07:36:15;99982.84;;;16.62;83.88
80986;BME280;70451;51.226;6.412;2023-08-30T07:38:30;99985.34;;;16.73;83.02
80986;BME280;70451;51.226;6.412;2023-08-30T07:40:45;99984.53;;;16.72;81.17
80986;BME280;70451;51.226;6.412;2023-08-30T07:43:00;99986.50;;;16.80;82.47
80986;BME280;70451;51.226;6.412;2023-08-30T07:45:16;99986.78;;;16.87;81.22
80986;BME280;70451;51.226;6.412;2023-08-30T07:47:31;99983.06;;;16.99;81.58
80986;BME280;70451;51.226;6.412;2023-08-30T07:49:46;99982.09;;;17.00;79.93
80986;BME280;70451;51.226;6.412;2023-08-30T07:52:02;99979.53;;;17.19;81.32
80986;BME280;70451;51.226;6.412;2023-08-30T07:54:18;99981.59;;;17.25;79.17
80986;BME280;70451;51.226;6.412;2023-08-30T07:56:33;99978.66;;;17.28;79.77
80986;BME280;70451;51.226;6.412;2023-08-30T07:58:48;99982.56;;;17.34;80.00
80986;BME280;70451;51.226;6.412;2023-08-30T08:01:03;99986.59;;;17.38;79.67
80986;BME280;70451;51.226;6.412;2023-08-30T08:03:20;99977.16;;;17.35;79.05
80986;BME280;70451;51.226;6.412;2023-08-30T08:05:36;99982.97;;;17.29;79.47
80986;BME280;70451;51.226;6.412;2023-08-30T08:07:52;99992.41;;;17.22;78.21
80986;BME280;70451;51.226;6.412;2023-08-30T08:10:08;99992.25;;;17.14;79.24
80986;BME280;70451;51.226;6.412;2023-08-30T08:12:26;99990.44;;;17.05;80.37
80986;BME280;70451;51.226;6.412;2023-08-30T08:14:41;99991.25;;;17.05;81.40
80986;BME280;70451;51.226;6.412;2023-08-30T08:16:58;99996.69;;;17.13;78.95
80986;BME280;70451;51.226;6.412;2023-08-30T08:19:13;99986.59;;;17.28;78.65
80986;BME280;70451;51.226;6.412;2023-08-30T08:21:29;99988.25;;;17.48;78.53
80986;BME280;70451;51.226;6.412;2023-08-30T08:23:44;99989.09;;;17.58;78.01
80986;BME280;70451;51.226;6.412;2023-08-30T08:26:00;99988.88;;;17.62;77.91
80986;BME280;70451;51.226;6.412;2023-08-30T08:28:16;99980.22;;;17.79;81.17
80986;BME280;70451;51.226;6.412;2023-08-30T08:30:32;99987.19;;;17.80;80.15
80986;BME280;70451;51.226;6.412;2023-08-30T08:32:48;99985.41;;;17.61;79.28
80986;BME280;70451;51.226;6.412;2023-08-30T08:35:03;99983.94;;;17.28;77.57
80986;BME280;70451;51.226;6.412;2023-08-30T08:37:19;99984.50;;;17.22;78.60
80986;BME280;70451;51.226;6.412;2023-08-30T08:39:35;99981.84;;;17.12;80.12
80986;BME280;70451;51.226;6.412;2023-08-30T08:41:51;99989.16;;;16.99;79.87
80986;BME280;70451;51.226;6.412;2023-08-30T08:44:09;99990.69;;;16.92;79.92
80986;BME280;70451;51.226;6.412;2023-08-30T08:46:26;99979.28;;;16.82;80.54
80986;BME280;70451;51.226;6.412;2023-08-30T08:48:45;99976.47;;;16.64;80.61
80986;BME280;70451;51.226;6.412;2023-08-30T08:51:02;99985.69;;;16.59;81.47
80986;BME280;70451;51.226;6.412;2023-08-30T08:53:17;99982.09;;;16.60;81.97
80986;BME280;70451;51.226;6.412;2023-08-30T08:55:33;99981.94;;;16.52;81.78
80986;BME280;70451;51.226;6.412;2023-08-30T08:57:49;99976.25;;;16.56;83.28
80986;BME280;70451;51.226;6.412;2023-08-30T09:00:06;99973.72;;;16.45;83.72
80986;BME280;70451;51.226;6.412;2023-08-30T09:02:22;99979.13;;;16.43;85.28
80986;BME280;70451;51.226;6.412;2023-08-30T09:04:39;99965.66;;;16.37;87.35
80986;BME280;70451;51.226;6.412;2023-08-30T09:06:54;99965.78;;;16.05;89.39
80986;BME280;70451;51.226;6.412;2023-08-30T09:09:11;99965.00;;;15.93;89.28
80986;BME280;70451;51.226;6.412;2023-08-30T09:11:27;99962.88;;;16.08;90.10
80986;BME280;70451;51.226;6.412;2023-08-30T09:13:43;99962.16;;;16.06;89.97
80986;BME280;70451;51.226;6.412;2023-08-30T09:15:59;99959.03;;;16.12;90.89
80986;BME280;70451;51.226;6.412;2023-08-30T09:18:18;99963.00;;;16.06;90.17
80986;BME280;70451;51.226;6.412;2023-08-30T09:20:34;99956.13;;;16.15;91.13
80986;BME280;70451;51.226;6.412;2023-08-30T09:22:49;99952.84;;;16.23;90.46
80986;BME280;70451;51.226;6.412;2023-08-30T09:25:10;99953.38;;;16.17;90.71
80986;BME280;70451;51.226;6.412;2023-08-30T09:27:34;99952.22;;;16.10;90.18
80986;BME280;70451;51.226;6.412;2023-08-30T09:29:50;99961.13;;;16.18;90.56
80986;BME280;70451;51.226;6.412;2023-08-30T09:32:07;99964.44;;;16.20;91.20
80986;BME280;70451;51.226;6.412;2023-08-30T09:34:23;99954.94;;;15.98;91.64
80986;BME280;70451;51.226;6.412;2023-08-30T09:36:42;99960.97;;;15.89;91.09
80986;BME280;70451;51.226;6.412;2023-08-30T09:38:57;99962.25;;;15.95;91.22
80986;BME280;70451;51.226;6.412;2023-08-30T09:41:13;99961.94;;;15.88;90.46
80986;BME280;70451;51.226;6.412;2023-08-30T09:43:28;99960.91;;;15.80;90.16
80986;BME280;70451;51.226;6.412;2023-08-30T09:45:43;99963.97;;;15.85;91.45
80986;BME280;70451;51.226;6.412;2023-08-30T09:48:01;99960.53;;;15.84;91.21
80986;BME280;70451;51.226;6.412;2023-08-30T09:50:20;99955.19;;;15.75;90.79
80986;BME280;70451;51.226;6.412;2023-08-30T09:52:37;99955.63;;;15.80;91.52
80986;BME280;70451;51.226;6.412;2023-08-30T09:54:54;99954.44;;;15.84;91.86
80986;BME280;70451;51.226;6.412;2023-08-30T09:57:10;99950.56;;;15.88;91.89
80986;BME280;70451;51.226;6.412;2023-08-30T09:59:26;99948.38;;;15.93;92.27
80986;BME280;70451;51.226;6.412;2023-08-30T10:01:42;99957.06;;;15.84;91.35
80986;BME280;70451;51.226;6.412;2023-08-30T10:04:00;99954.25;;;15.76;92.05
80986;BME280;70451;51.226;6.412;2023-08-30T10:06:18;99959.81;;;15.61;93.71
80986;BME280;70451;51.226;6.412;2023-08-30T10:08:34;99967.66;;;15.41;93.96
80986;BME280;70451;51.226;6.412;2023-08-30T10:10:50;99968.72;;;15.38;95.21
80986;BME280;70451;51.226;6.412;2023-08-30T10:13:06;99969.84;;;15.24;95.54
80986;BME280;70451;51.226;6.412;2023-08-30T10:15:23;99967.22;;;15.24;96.31
80986;BME280;70451;51.226;6.412;2023-08-30T10:17:44;99965.94;;;15.08;97.14
80986;BME280;70451;51.226;6.412;2023-08-30T10:20:04;99966.72;;;15.31;97.81
80986;BME280;70451;51.226;6.412;2023-08-30T10:22:20;99960.75;;;15.28;98.00
80986;BME280;70451;51.226;6.412;2023-08-30T10:24:41;99973.38;;;15.35;98.43
80986;BME280;70451;51.226;6.412;2023-08-30T10:27:00;99967.66;;;15.41;98.65
80986;BME280;70451;51.226;6.412;2023-08-30T10:29:17;99962.97;;;15.44;98.46
80986;BME280;70451;51.226;6.412;2023-08-30T10:31:34;99962.41;;;15.29;98.26
80986;BME280;70451;51.226;6.412;2023-08-30T10:33:50;99963.97;;;15.32;98.79
80986;BME280;70451;51.226;6.412;2023-08-30T10:36:07;99969.25;;;15.21;99.14
80986;BME280;70451;51.226;6.412;2023-08-30T10:38:29;99962.88;;;15.03;99.27
80986;BME280;70451;51.226;6.412;2023-08-30T10:40:45;99962.19;;;14.89;99.43
80986;BME280;70451;51.226;6.412;2023-08-30T10:43:02;99969.72;;;14.83;99.95
80986;BME280;70451;51.226;6.412;2023-08-30T10:45:23;99966.38;;;14.81;100.00
80986;BME280;70451;51.226;6.412;2023-08-30T10:47:39;99968.50;;;14.87;100.00
80986;BME280;70451;51.226;6.412;2023-08-30T10:49:59;99958.69;;;15.00;100.00
80986;BME280;70451;51.226;6.412;2023-08-30T10:52:15;99961.81;;;15.05;100.00
80986;BME280;70451;51.226;6.412;2023-08-30T10:54:37;99959.91;;;15.28;100.00
80986;BME280;70451;51.226;6.412;2023-08-30T10:56:58;99958.94;;;15.29;100.00
80986;BME280;70451;51.226;6.412;2023-08-30T10:59:19;99960.84;;;15.38;100.00
80986;BME280;70451;51.226;6.412;2023-08-30T11:01:35;99969.28;;;15.42;100.00
80986;BME280;70451;51.226;6.412;2023-08-30T11:03:50;99965.19;;;15.60;100.00
80986;BME280;70451;51.226;6.412;2023-08-30T11:06:06;99955.25;;;15.63;100.00
80986;BME280;70451;51.226;6.412;2023-08-30T11:08:22;99955.00;;;15.66;99.89
80986;BME280;70451;51.226;6.412;2023-08-30T11:10:38;99960.97;;;15.69;99.90
80986;BME280;70451;51.226;6.412;2023-08-30T11:12:57;99963.59;;;15.37;99.81
80986;BME280;70451;51.226;6.412;2023-08-30T11:15:13;99960.78;;;15.49;100.00
80986;BME280;70451;51.226;6.412;2023-08-30T11:17:31;99959.63;;;15.42;100.00
80986;BME280;70451;51.226;6.412;2023-08-30T11:19:50;99950.38;;;15.59;100.00
80986;BME280;70451;51.226;6.412;2023-08-30T11:22:05;99949.94;;;15.54;100.00
80986;BME280;70451;51.226;6.412;2023-08-30T11:24:21;99951.59;;;15.44;100.00
80986;BME280;70451;51.226;6.412;2023-08-30T11:26:36;99955.06;;;15.55;100.00
80986;BME280;70451;51.226;6.412;2023-08-30T11:28:52;99955.59;;;15.38;100.00
80986;BME280;70451;51.226;6.412;2023-08-30T11:31:09;99954.44;;;15.52;100.00
80986;BME280;70451;51.226;6.412;2023-08-30T11:33:24;99950.78;;;15.43;100.00
80986;BME280;70451;51.226;6.412;2023-08-30T11:35:39;99953.72;;;15.50;100.00
80986;BME280;70451;51.226;6.412;2023-08-30T11:37:55;99955.66;;;15.48;100.00
80986;BME280;70451;51.226;6.412;2023-08-30T11:40:11;99950.50;;;15.57;100.00
80986;BME280;70451;51.226;6.412;2023-08-30T11:42:27;99949.09;;;15.42;100.00
80986;BME280;70451;51.226;6.412;2023-08-30T11:44:44;99952.88;;;15.49;100.00
80986;BME280;70451;51.226;6.412;2023-08-30T11:46:59;99955.91;;;15.56;100.00
80986;BME280;70451;51.226;6.412;2023-08-30T11:49:16;99951.50;;;15.77;100.00
80986;BME280;70451;51.226;6.412;2023-08-30T11:51:31;99952.50;;;15.86;100.00
80986;BME280;70451;51.226;6.412;2023-08-30T11:53:48;99940.66;;;15.91;99.94
80986;BME280;70451;51.226;6.412;2023-08-30T11:56:05;99942.94;;;15.85;99.92
80986;BME280;70451;51.226;6.412;2023-08-30T11:58:21;99945.88;;;15.71;99.96
80986;BME280;70451;51.226;6.412;2023-08-30T12:00:36;99942.88;;;15.75;100.00
80986;BME280;70451;51.226;6.412;2023-08-30T12:02:52;99936.88;;;15.52;100.00